createdAt,value
2022-07-30T00:02:10.368Z,22.44
2022-07-30T00:04:38.215Z,22.38
2022-07-30T00:07:06.149Z,22.38
2022-07-30T00:09:34.449Z,22.36
2022-07-30T00:12:08.827Z,22.38
2022-07-30T00:14:37.056Z,22.37
2022-07-30T00:17:05.446Z,22.36
2022-07-30T00:19:34.108Z,22.40
2022-07-30T00:22:03.634Z,22.47
2022-07-30T00:24:31.426Z,22.48
2022-07-30T00:26:59.375Z,22.53
2022-07-30T00:29:27.457Z,22.53
2022-07-30T00:31:56.503Z,22.56
2022-07-30T00:34:24.425Z,22.55
2022-07-30T00:36:52.765Z,22.48
2022-07-30T00:39:20.653Z,22.49
2022-07-30T00:42:04.508Z,22.50
2022-07-30T00:44:32.670Z,22.50
2022-07-30T00:47:00.876Z,22.53
2022-07-30T00:49:29.156Z,22.54
2022-07-30T00:51:57.119Z,22.53
2022-07-30T00:54:25.065Z,22.53
2022-07-30T00:56:52.975Z,22.52
2022-07-30T00:59:20.829Z,22.51
2022-07-30T01:01:48.710Z,22.54
2022-07-30T01:04:16.561Z,22.51
2022-07-30T01:06:44.374Z,22.46
2022-07-30T01:09:12.247Z,22.48
2022-07-30T01:11:43.183Z,22.33
2022-07-30T01:14:11.147Z,22.27
2022-07-30T01:16:42.929Z,22.29
2022-07-30T01:19:41.663Z,22.35
2022-07-30T01:22:31.499Z,22.42
2022-07-30T01:25:21.138Z,22.40
2022-07-30T01:27:52.728Z,22.39
2022-07-30T01:30:27.105Z,22.40
2022-07-30T01:32:58.090Z,22.46
2022-07-30T01:35:29.588Z,22.53
2022-07-30T01:38:01.063Z,22.65
2022-07-30T01:40:30.871Z,22.69
2022-07-30T01:43:02.210Z,22.70
2022-07-30T01:45:33.786Z,22.69
2022-07-30T01:48:12.311Z,22.65
2022-07-30T01:50:45.617Z,22.49
2022-07-30T01:53:18.403Z,22.39
2022-07-30T01:55:48.557Z,22.25
2022-07-30T01:58:21.180Z,22.14
2022-07-30T02:00:58.425Z,22.16
2022-07-30T02:03:29.713Z,22.16
2022-07-30T02:06:11.157Z,22.10
2022-07-30T02:08:48.745Z,22.20
2022-07-30T02:14:11.526Z,22.31
2022-07-30T02:16:44.665Z,22.28
2022-07-30T02:19:16.535Z,22.31
2022-07-30T02:21:50.850Z,22.25
2022-07-30T02:24:26.038Z,22.18
2022-07-30T02:27:03.143Z,22.10
2022-07-30T02:29:38.200Z,22.10
2022-07-30T02:32:12.629Z,22.12
2022-07-30T02:34:43.855Z,22.13
2022-07-30T02:37:14.571Z,22.12
2022-07-30T02:39:43.837Z,22.16
2022-07-30T02:42:14.834Z,22.18
2022-07-30T02:44:45.893Z,22.11
2022-07-30T02:47:16.739Z,22.02
2022-07-30T02:50:06.393Z,21.80
2022-07-30T02:52:36.442Z,21.72
2022-07-30T02:55:06.134Z,21.78
2022-07-30T02:57:35.971Z,21.82
2022-07-30T03:00:12.809Z,21.79
2022-07-30T03:02:43.886Z,21.77
2022-07-30T03:05:14.973Z,21.80
2022-07-30T03:07:45.553Z,21.76
2022-07-30T03:10:15.449Z,21.69
2022-07-30T03:12:46.530Z,21.62
2022-07-30T03:15:15.857Z,21.59
2022-07-30T03:17:52.688Z,21.53
2022-07-30T03:20:28.094Z,21.52
2022-07-30T03:22:59.233Z,21.51
2022-07-30T03:25:32.032Z,21.51
2022-07-30T03:28:04.160Z,21.51
2022-07-30T03:30:35.160Z,21.50
2022-07-30T03:33:05.535Z,21.57
2022-07-30T03:35:33.708Z,21.63
2022-07-30T03:38:02.646Z,21.66
2022-07-30T03:40:32.503Z,21.64
2022-07-30T03:43:00.918Z,21.54
2022-07-30T03:45:29.683Z,21.45
2022-07-30T03:48:10.302Z,21.36
2022-07-30T03:50:44.057Z,21.35
2022-07-30T03:53:12.865Z,21.35
2022-07-30T03:56:01.300Z,21.35
2022-07-30T03:58:47.801Z,21.34
2022-07-30T04:01:15.855Z,21.34
2022-07-30T04:03:44.250Z,21.42
2022-07-30T04:06:12.673Z,21.48
2022-07-30T04:08:40.443Z,21.53
2022-07-30T04:11:08.418Z,21.55
2022-07-30T04:13:54.544Z,21.54
2022-07-30T04:16:44.574Z,21.55
2022-07-30T04:19:24.459Z,21.50
2022-07-30T04:21:57.155Z,21.60
2022-07-30T04:24:28.439Z,21.68
2022-07-30T04:27:01.694Z,21.72
2022-07-30T04:29:29.887Z,21.74
2022-07-30T04:31:58.468Z,21.79
2022-07-30T04:34:56.621Z,21.82
2022-07-30T04:37:47.615Z,21.87
2022-07-30T04:40:18.910Z,21.93
2022-07-30T04:42:47.672Z,21.98
2022-07-30T04:45:17.004Z,22.03
2022-07-30T04:47:56.162Z,22.04
2022-07-30T04:50:49.041Z,22.08
2022-07-30T04:53:20.520Z,22.11
2022-07-30T04:55:55.603Z,22.21
2022-07-30T04:58:28.742Z,22.34
2022-07-30T05:00:58.290Z,22.42
2022-07-30T05:03:32.225Z,22.55
2022-07-30T05:06:01.619Z,22.71
2022-07-30T05:08:33.610Z,22.80
2022-07-30T05:11:05.511Z,22.79
2022-07-30T05:13:34.384Z,22.77
2022-07-30T05:16:07.000Z,22.78
2022-07-30T05:18:37.768Z,22.83
2022-07-30T05:21:06.327Z,22.88
2022-07-30T05:23:50.120Z,22.87
2022-07-30T05:26:38.782Z,22.85
2022-07-30T05:29:08.932Z,22.82
2022-07-30T05:31:50.137Z,22.79
2022-07-30T05:34:19.733Z,22.87
2022-07-30T05:36:47.738Z,22.99
2022-07-30T05:39:18.154Z,23.10
2022-07-30T05:42:05.566Z,23.24
2022-07-30T05:44:38.282Z,23.37
2022-07-30T05:47:06.405Z,23.54
2022-07-30T05:49:34.457Z,23.69
2022-07-30T05:52:09.046Z,23.76
2022-07-30T05:54:36.869Z,23.88
2022-07-30T05:57:05.122Z,24.05
2022-07-30T05:59:35.507Z,24.16
2022-07-30T06:02:25.641Z,24.32
2022-07-30T06:05:16.887Z,24.50
2022-07-30T06:07:45.680Z,24.60
2022-07-30T06:10:14.554Z,24.65
2022-07-30T06:12:42.663Z,24.72
2022-07-30T06:15:11.673Z,24.80
2022-07-30T06:17:51.991Z,24.94
2022-07-30T06:20:51.947Z,25.12
2022-07-30T06:23:32.122Z,25.23
2022-07-30T06:26:20.218Z,25.39
2022-07-30T06:28:48.423Z,25.53
2022-07-30T06:31:25.553Z,25.72
2022-07-30T06:33:53.562Z,25.89
2022-07-30T06:36:21.461Z,26.02
2022-07-30T06:38:56.546Z,26.17
2022-07-30T06:41:36.538Z,26.32
2022-07-30T06:44:05.049Z,26.46
2022-07-30T06:46:51.522Z,26.58
2022-07-30T06:49:22.040Z,26.67
2022-07-30T06:51:50.360Z,26.85
2022-07-30T06:54:19.205Z,27.01
2022-07-30T06:57:17.740Z,27.24
2022-07-30T06:59:57.008Z,27.36
2022-07-30T07:02:36.034Z,27.57
2022-07-30T07:05:11.872Z,27.74
2022-07-30T07:07:52.249Z,27.89
2022-07-30T07:10:27.533Z,28.03
2022-07-30T07:13:11.074Z,28.24
2022-07-30T07:15:39.106Z,28.43
2022-07-30T07:18:12.867Z,28.59
2022-07-30T07:20:46.781Z,28.78
2022-07-30T07:23:14.940Z,29.00
2022-07-30T07:27:05.917Z,29.22
2022-07-30T07:30:01.387Z,29.51
2022-07-30T07:32:35.382Z,29.77
2022-07-30T07:35:05.278Z,29.90
2022-07-30T07:37:35.050Z,30.06
2022-07-30T07:40:04.900Z,30.23
2022-07-30T07:42:37.124Z,30.34
2022-07-30T07:45:06.929Z,30.41
2022-07-30T07:47:53.248Z,30.67
2022-07-30T07:50:38.316Z,30.90
2022-07-30T07:53:08.648Z,31.05
2022-07-30T07:55:36.682Z,31.19
2022-07-30T07:58:05.069Z,31.39
2022-07-30T08:00:34.150Z,31.61
2022-07-30T08:03:02.037Z,31.84
2022-07-30T08:06:01.973Z,32.09
2022-07-30T08:08:28.300Z,32.20
2022-07-30T08:11:14.882Z,32.27
2022-07-30T08:14:05.332Z,32.29
2022-07-30T08:16:51.863Z,32.28
2022-07-30T08:19:38.116Z,32.27
2022-07-30T08:22:17.610Z,32.07
2022-07-30T08:24:45.599Z,31.93
2022-07-30T08:27:13.800Z,31.58
2022-07-30T08:29:42.096Z,31.33
2022-07-30T08:32:10.318Z,31.46
2022-07-30T08:34:40.678Z,31.61
2022-07-30T08:37:09.060Z,31.71
2022-07-30T08:39:37.487Z,31.90
2022-07-30T08:42:05.988Z,31.88
2022-07-30T08:44:37.270Z,31.89
2022-07-30T08:47:10.228Z,32.01
2022-07-30T08:50:01.776Z,32.11
2022-07-30T08:52:35.647Z,32.22
2022-07-30T08:55:05.944Z,32.22
2022-07-30T08:57:37.957Z,32.23
2022-07-30T09:00:08.817Z,32.28
2022-07-30T09:02:36.714Z,32.34
2022-07-30T09:05:07.604Z,32.43
2022-07-30T09:07:37.723Z,32.54
2022-07-30T09:10:10.420Z,32.46
2022-07-30T09:12:45.418Z,32.37
2022-07-30T09:15:19.523Z,32.11
2022-07-30T09:18:03.248Z,32.22
2022-07-30T09:20:36.417Z,32.44
2022-07-30T09:23:08.372Z,32.67
2022-07-30T09:25:54.908Z,32.63
2022-07-30T09:29:25.513Z,32.48
2022-07-30T09:32:12.220Z,32.45
2022-07-30T09:35:14.298Z,32.74
2022-07-30T09:38:20.413Z,32.89
2022-07-30T09:40:57.309Z,32.98
2022-07-30T09:43:52.766Z,33.17
2022-07-30T09:46:52.764Z,33.55
2022-07-30T09:49:33.019Z,33.70
2022-07-30T09:52:01.384Z,33.76
2022-07-30T09:54:52.785Z,33.76
2022-07-30T09:57:28.215Z,33.83
2022-07-30T10:00:24.293Z,33.71
2022-07-30T10:03:34.252Z,33.67
2022-07-30T10:06:38.268Z,33.89
2022-07-30T10:09:38.575Z,33.99
2022-07-30T10:12:11.992Z,33.90
2022-07-30T10:14:46.967Z,33.87
2022-07-30T10:17:18.570Z,33.77
2022-07-30T10:20:09.468Z,33.82
2022-07-30T10:22:56.411Z,33.63
2022-07-30T10:25:27.825Z,33.56
2022-07-30T10:28:39.369Z,33.47
2022-07-30T10:31:08.298Z,33.61
2022-07-30T10:33:57.286Z,33.65
2022-07-30T10:36:28.057Z,33.64
2022-07-30T10:38:56.927Z,33.51
2022-07-30T10:42:15.490Z,33.44
2022-07-30T10:45:04.263Z,33.56
2022-07-30T10:47:40.484Z,33.62
2022-07-30T10:50:26.888Z,33.74
2022-07-30T10:53:03.937Z,33.88
2022-07-30T10:55:37.535Z,33.76
2022-07-30T10:58:11.606Z,33.89
2022-07-30T11:01:02.695Z,33.86
2022-07-30T11:03:41.218Z,33.92
2022-07-30T11:06:15.449Z,34.08
2022-07-30T11:08:48.075Z,34.11
2022-07-30T11:12:02.037Z,34.22
2022-07-30T11:14:56.854Z,34.06
2022-07-30T11:17:25.245Z,33.88
2022-07-30T11:20:06.859Z,33.99
2022-07-30T11:22:44.644Z,34.12
2022-07-30T11:25:49.919Z,33.83
2022-07-30T11:28:44.889Z,33.19
2022-07-30T11:31:54.813Z,32.73
2022-07-30T11:34:26.034Z,32.37
2022-07-30T11:37:21.672Z,32.18
2022-07-30T11:39:56.394Z,32.15
2022-07-30T11:42:37.136Z,32.07
2022-07-30T11:45:31.391Z,31.95
2022-07-30T11:48:00.564Z,31.89
2022-07-30T11:50:32.841Z,31.74
2022-07-30T11:53:04.956Z,31.70
2022-07-30T11:55:40.919Z,31.45
2022-07-30T11:58:24.555Z,31.26
2022-07-30T12:01:01.031Z,31.05
2022-07-30T12:03:33.636Z,30.98
2022-07-30T12:06:27.722Z,30.87
2022-07-30T12:08:58.714Z,30.86
2022-07-30T12:11:34.159Z,30.93
2022-07-30T12:14:03.575Z,30.93
2022-07-30T12:16:32.732Z,30.85
2022-07-30T12:19:06.532Z,30.83
2022-07-30T12:21:37.547Z,30.83
2022-07-30T12:24:07.729Z,30.80
2022-07-30T12:26:36.575Z,30.65
2022-07-30T12:29:13.640Z,30.59
2022-07-30T12:31:42.432Z,30.52
2022-07-30T12:34:24.820Z,30.16
2022-07-30T12:36:53.599Z,29.70
2022-07-30T12:39:27.303Z,29.39
2022-07-30T12:41:59.218Z,29.18
2022-07-30T12:44:42.651Z,29.12
2022-07-30T12:47:22.185Z,29.07
2022-07-30T12:49:53.264Z,29.02
2022-07-30T12:52:39.387Z,29.00
2022-07-30T12:55:12.364Z,28.88
2022-07-30T12:58:07.641Z,28.76
2022-07-30T13:00:54.946Z,28.34
2022-07-30T13:03:27.063Z,28.12
2022-07-30T13:05:57.115Z,27.99
2022-07-30T13:09:00.807Z,28.01
2022-07-30T13:11:40.353Z,28.02
2022-07-30T13:14:11.046Z,27.91
2022-07-30T13:16:40.011Z,27.85
2022-07-30T13:19:11.478Z,27.87
2022-07-30T13:21:42.954Z,27.87
2022-07-30T13:24:19.304Z,27.91
2022-07-30T13:26:47.565Z,27.89
2022-07-30T13:29:18.495Z,27.86
2022-07-30T13:31:46.556Z,27.83
2022-07-30T13:34:14.457Z,27.81
2022-07-30T13:36:43.160Z,27.82
2022-07-30T13:39:12.169Z,27.81
2022-07-30T13:41:41.847Z,27.81
2022-07-30T13:44:09.757Z,27.79
2022-07-30T13:46:40.607Z,27.86
2022-07-30T13:49:11.018Z,27.88
2022-07-30T13:51:39.180Z,27.95
2022-07-30T13:54:07.579Z,28.02
2022-07-30T13:56:40.747Z,28.01
2022-07-30T13:59:09.931Z,27.87
2022-07-30T14:01:38.330Z,27.83
2022-07-30T14:04:06.305Z,27.82
2022-07-30T14:06:34.373Z,27.70
2022-07-30T14:09:02.276Z,27.64
2022-07-30T14:11:32.169Z,27.53
2022-07-30T14:14:00.244Z,27.43
2022-07-30T14:16:44.812Z,27.31
2022-07-30T14:19:23.386Z,27.16
2022-07-30T14:21:54.154Z,27.02
2022-07-30T14:24:24.448Z,27.07
2022-07-30T14:26:57.311Z,27.17
2022-07-30T14:29:27.539Z,27.28
2022-07-30T14:31:56.916Z,27.40
2022-07-30T14:34:25.184Z,27.47
2022-07-30T14:36:53.060Z,27.46
2022-07-30T14:39:21.515Z,27.37
2022-07-30T14:41:52.315Z,27.28
2022-07-30T14:44:24.111Z,27.11
2022-07-30T14:46:53.020Z,27.08
2022-07-30T14:49:22.777Z,27.11
2022-07-30T14:51:51.388Z,27.14
2022-07-30T14:54:19.852Z,27.21
2022-07-30T14:56:47.748Z,27.30
2022-07-30T14:59:17.034Z,27.40
2022-07-30T15:01:45.261Z,27.45
2022-07-30T15:04:13.232Z,27.52
2022-07-30T15:06:42.100Z,27.55
2022-07-30T15:09:10.531Z,27.53
2022-07-30T15:12:04.186Z,27.66
2022-07-30T15:14:28.367Z,27.78
2022-07-30T15:17:03.539Z,27.87
2022-07-30T15:19:33.475Z,27.84
2022-07-30T15:22:03.202Z,27.83
2022-07-30T15:24:31.830Z,27.81
2022-07-30T15:27:00.340Z,27.82
2022-07-30T15:29:30.307Z,27.84
2022-07-30T15:32:00.573Z,27.83
2022-07-30T15:34:34.245Z,27.79
2022-07-30T15:37:05.245Z,27.74
2022-07-30T15:39:34.305Z,27.72
2022-07-30T15:42:03.977Z,27.69
2022-07-30T15:44:32.243Z,27.71
2022-07-30T15:47:01.052Z,27.74
2022-07-30T15:49:29.889Z,27.83
2022-07-30T15:52:00.742Z,27.89
2022-07-30T15:54:29.140Z,27.98
2022-07-30T15:57:01.245Z,28.08
2022-07-30T15:59:30.621Z,28.13
2022-07-30T16:01:59.025Z,28.17
2022-07-30T16:04:31.439Z,28.16
2022-07-30T16:07:04.537Z,28.26
2022-07-30T16:09:32.440Z,28.42
2022-07-30T16:12:00.878Z,28.54
2022-07-30T16:14:29.600Z,28.59
2022-07-30T16:16:57.526Z,28.57
2022-07-30T16:19:27.287Z,28.58
2022-07-30T16:21:55.914Z,28.59
2022-07-30T16:24:25.618Z,28.59
2022-07-30T16:26:53.618Z,28.57
2022-07-30T16:29:21.493Z,28.55
2022-07-30T16:31:50.097Z,28.53
2022-07-30T16:34:23.121Z,28.46
2022-07-30T16:36:54.586Z,28.40
2022-07-30T16:39:22.668Z,28.26
2022-07-30T16:41:51.074Z,28.16
2022-07-30T16:44:19.151Z,28.15
2022-07-30T16:46:48.091Z,28.18
2022-07-30T16:49:16.358Z,28.16
2022-07-30T16:51:44.349Z,28.10
2022-07-30T16:54:13.350Z,28.06
2022-07-30T16:56:41.373Z,27.96
2022-07-30T16:59:13.725Z,27.89
2022-07-30T17:01:42.038Z,27.74
2022-07-30T17:04:10.254Z,27.66
2022-07-30T17:06:40.160Z,27.58
2022-07-30T17:09:08.128Z,27.57
2022-07-30T17:11:47.902Z,27.54
2022-07-30T17:14:22.370Z,27.47
2022-07-30T17:16:50.727Z,27.41
2022-07-30T17:19:18.686Z,27.37
2022-07-30T17:21:46.716Z,27.27
2022-07-30T17:24:14.750Z,27.15
2022-07-30T17:26:43.762Z,27.07
2022-07-30T17:29:15.049Z,27.08
2022-07-30T17:31:44.911Z,27.12
2022-07-30T17:34:16.037Z,27.05
2022-07-30T17:36:51.450Z,26.36
2022-07-30T17:40:24.767Z,25.07
2022-07-30T17:42:12.157Z,23.81
2022-07-30T17:44:42.683Z,22.63
2022-07-30T17:47:14.632Z,22.22
2022-07-30T17:49:44.867Z,21.48
2022-07-30T17:52:12.935Z,20.96
2022-07-30T17:54:41.392Z,20.90
2022-07-30T17:57:09.590Z,20.92
2022-07-30T17:59:37.582Z,21.01
2022-07-30T18:02:06.161Z,21.30
2022-07-30T18:04:35.065Z,21.69
2022-07-30T18:07:04.348Z,21.94
2022-07-30T18:09:39.137Z,22.08
2022-07-30T18:12:08.889Z,22.17
2022-07-30T18:14:37.715Z,22.22
2022-07-30T18:17:05.978Z,22.27
2022-07-30T18:19:34.877Z,22.39
2022-07-30T18:22:04.384Z,22.52
2022-07-30T18:24:32.773Z,22.61
2022-07-30T18:27:00.696Z,22.61
2022-07-30T18:29:28.718Z,22.58
2022-07-30T18:31:57.321Z,22.52
2022-07-30T18:34:25.216Z,22.49
2022-07-30T18:36:53.404Z,22.50
2022-07-30T18:39:21.628Z,22.49
2022-07-30T18:41:49.567Z,22.47
2022-07-30T18:44:17.465Z,22.44
2022-07-30T18:46:45.661Z,22.53
2022-07-30T18:49:35.696Z,22.58
2022-07-30T18:52:03.190Z,22.68
2022-07-30T18:54:31.400Z,22.71
2022-07-30T18:56:59.318Z,22.75
2022-07-30T18:59:27.307Z,22.75
2022-07-30T19:01:55.456Z,22.75
2022-07-30T19:04:23.582Z,22.75
2022-07-30T19:06:51.577Z,22.75
2022-07-30T19:09:19.569Z,22.67
2022-07-30T19:11:47.478Z,22.58
2022-07-30T19:14:15.938Z,22.48
2022-07-30T19:16:44.912Z,22.46
2022-07-30T19:19:13.812Z,22.51
2022-07-30T19:21:42.170Z,22.53
2022-07-30T19:24:10.909Z,22.56
2022-07-30T19:26:39.935Z,22.61
2022-07-30T19:29:08.517Z,22.62
2022-07-30T19:31:36.764Z,22.51
2022-07-30T19:34:05.260Z,22.44
2022-07-30T19:36:33.729Z,22.35
2022-07-30T19:39:06.762Z,22.32
2022-07-30T19:41:40.761Z,22.34
2022-07-30T19:44:10.530Z,22.35
2022-07-30T19:46:41.247Z,22.38
2022-07-30T19:49:12.626Z,22.40
2022-07-30T19:52:11.008Z,22.29
2022-07-30T19:54:28.662Z,22.18
2022-07-30T19:56:56.661Z,22.12
2022-07-30T19:59:45.452Z,22.11
2022-07-30T20:02:13.742Z,22.12
2022-07-30T20:04:43.602Z,22.12
2022-07-30T20:07:12.050Z,22.18
2022-07-30T20:09:42.873Z,22.24
2022-07-30T20:12:11.873Z,22.21
2022-07-30T20:14:43.437Z,22.13
2022-07-30T20:17:11.810Z,22.05
2022-07-30T20:19:47.759Z,21.96
2022-07-30T20:22:17.019Z,21.88
2022-07-30T20:24:48.629Z,21.78
2022-07-30T20:27:36.053Z,21.67
2022-07-30T20:32:54.925Z,21.63
2022-07-30T20:35:26.218Z,21.53
2022-07-30T20:37:55.340Z,21.50
2022-07-30T20:40:26.586Z,21.37
2022-07-30T20:42:55.320Z,21.44
2022-07-30T20:45:24.917Z,21.47
2022-07-30T20:47:56.867Z,21.52
2022-07-30T20:50:30.630Z,21.54
2022-07-30T20:52:59.776Z,21.61
2022-07-30T20:55:28.538Z,21.67
2022-07-30T20:58:07.915Z,21.68
2022-07-30T21:00:42.240Z,21.58
2022-07-30T21:03:21.801Z,21.60
2022-07-30T21:05:52.607Z,21.63
2022-07-30T21:08:25.139Z,21.75
2022-07-30T21:10:55.024Z,21.83
2022-07-30T21:13:25.067Z,21.88
2022-07-30T21:16:02.355Z,21.96
2022-07-30T21:18:32.715Z,21.99
2022-07-30T21:21:05.469Z,22.05
2022-07-30T21:23:34.103Z,21.99
2022-07-30T21:26:05.825Z,21.93
2022-07-30T21:28:36.083Z,21.90
2022-07-30T21:31:07.349Z,21.89
2022-07-30T21:33:38.913Z,21.95
2022-07-30T21:36:10.843Z,21.99
2022-07-30T21:38:41.913Z,22.07
2022-07-30T21:41:14.058Z,22.12
2022-07-30T21:43:44.498Z,22.16
2022-07-30T21:46:14.330Z,22.20
2022-07-30T21:48:45.886Z,22.20
2022-07-30T21:51:15.064Z,22.17
2022-07-30T21:53:44.784Z,22.19
2022-07-30T21:56:15.827Z,22.21
2022-07-30T21:58:44.661Z,22.21
2022-07-30T22:01:17.047Z,22.22
2022-07-30T22:04:01.674Z,22.20
2022-07-30T22:06:40.458Z,22.17
2022-07-30T22:12:09.233Z,22.13
2022-07-30T22:14:39.854Z,22.08
2022-07-30T22:17:22.798Z,22.08
2022-07-30T22:19:55.960Z,22.08
2022-07-30T22:22:26.740Z,22.11
2022-07-30T22:24:58.192Z,22.12
2022-07-30T22:27:39.444Z,22.14
2022-07-30T22:30:10.783Z,22.13
2022-07-30T22:32:43.062Z,22.11
2022-07-30T22:35:12.856Z,22.11
2022-07-30T22:37:46.001Z,22.14
2022-07-30T22:40:13.990Z,22.19
2022-07-30T22:42:46.761Z,22.16
2022-07-30T22:45:46.531Z,22.17
2022-07-30T22:48:10.758Z,22.16
2022-07-30T22:50:39.991Z,22.17
2022-07-30T22:53:14.426Z,22.09
2022-07-30T22:55:58.960Z,22.02
2022-07-30T22:58:28.933Z,22.04
2022-07-30T23:00:57.661Z,21.95
2022-07-30T23:03:25.542Z,21.95
2022-07-30T23:05:55.815Z,21.94
2022-07-30T23:08:30.407Z,21.91
2022-07-30T23:11:02.305Z,21.88
2022-07-30T23:12:18.962Z,21.65
2022-07-30T23:12:28.284Z,22.18
2022-07-30T23:13:30.174Z,21.91
2022-07-30T23:15:58.051Z,21.94
2022-07-30T23:18:26.106Z,21.95
2022-07-30T23:20:59.916Z,21.99
2022-07-30T23:23:33.882Z,22.02
2022-07-30T23:26:04.348Z,22.02
2022-07-30T23:28:32.967Z,21.98
2022-07-30T23:31:01.268Z,21.95
2022-07-30T23:33:30.731Z,21.92
2022-07-30T23:36:02.114Z,21.88
2022-07-30T23:38:30.077Z,21.81
2022-07-30T23:41:07.097Z,21.78
2022-07-30T23:43:35.099Z,21.78
2022-07-30T23:46:04.153Z,21.81
2022-07-30T23:48:37.767Z,21.77
2022-07-30T23:51:05.943Z,21.69
2022-07-30T23:53:33.938Z,21.63
2022-07-30T23:56:01.815Z,21.67
2022-07-30T23:58:30.497Z,21.65
